Time;durP1;ratioP1;P1;durP2;ratioP2;P2;SDS_P1;SDS_P2;PMS_P1;PMS_P2;Temp;Humidity;BMP_temperature;BMP_pressure;BME280_temperature;BME280_humidity;BME280_pressure;Samples;Min_cycle;Max_cycle;Signal;HPM_P1;HPM_P2
2023/02/07 00:01:55;;;;;;;1999.90;999.90;;;2.50;99.90;;;;;;5094173;28;20118;-73
2023/02/07 00:04:21;;;;;;;1999.90;999.90;;;2.50;99.90;;;;;;5112773;28;20373;-83
2023/02/07 00:06:47;;;;;;;1999.90;999.90;;;2.40;99.90;;;;;;5112372;28;20031;-82
2023/02/07 00:09:12;;;;;;;1999.90;999.90;;;2.40;99.90;;;;;;5112040;28;20031;-73
2023/02/07 00:11:39;;;;;;;1999.90;999.90;;;2.30;99.90;;;;;;5112202;28;20480;-72
2023/02/07 00:14:06;;;;;;;1999.90;999.90;;;2.40;99.90;;;;;;5091910;28;20028;-82
2023/02/07 00:16:32;;;;;;;1999.90;999.90;;;2.30;99.90;;;;;;5090150;28;20024;-82
2023/02/07 00:18:58;;;;;;;1999.90;999.90;;;2.30;99.90;;;;;;5089128;28;20032;-83
2023/02/07 00:21:25;;;;;;;1999.90;999.90;;;2.30;99.90;;;;;;5085069;28;20146;-72
2023/02/07 00:23:52;;;;;;;1999.90;999.90;;;2.20;99.90;;;;;;5070386;28;20490;-73
2023/02/07 00:26:20;;;;;;;1999.90;999.90;;;2.20;99.90;;;;;;5071943;28;20503;-72
2023/02/07 00:28:46;;;;;;;1999.90;999.90;;;2.20;99.90;;;;;;5071886;28;20032;-72
2023/02/07 00:31:18;;;;;;;1999.90;999.90;;;2.20;99.90;;;;;;5071700;28;20056;-83
2023/02/07 00:33:45;;;;;;;1999.90;999.90;;;2.20;99.90;;;;;;5071887;28;20028;-83
2023/02/07 00:36:14;;;;;;;1999.90;999.90;;;2.10;99.90;;;;;;5071401;28;20029;-72
2023/02/07 00:38:40;;;;;;;1999.90;999.90;;;2.10;99.90;;;;;;5090294;28;20514;-72
2023/02/07 00:41:06;;;;;;;1999.90;999.90;;;2.10;99.90;;;;;;5073276;28;20024;-72
2023/02/07 00:43:31;;;;;;;1999.90;999.90;;;2.10;99.90;;;;;;5091682;28;20032;-83
2023/02/07 00:45:59;;;;;;;1999.90;999.90;;;2.00;99.90;;;;;;5091359;28;20048;-82
2023/02/07 00:48:26;;;;;;;1999.90;999.90;;;2.10;99.90;;;;;;5092091;28;20036;-72
2023/02/07 00:50:52;;;;;;;1999.90;999.90;;;2.10;99.90;;;;;;5091392;28;20368;-72
2023/02/07 00:53:17;;;;;;;1999.90;999.90;;;2.00;99.90;;;;;;5090728;28;20032;-72
2023/02/07 00:55:43;;;;;;;1999.90;999.90;;;2.00;99.90;;;;;;5090342;28;20107;-83
2023/02/07 00:58:09;;;;;;;1999.90;999.90;;;2.00;99.90;;;;;;5091694;28;20066;-83
2023/02/07 01:00:34;;;;;;;1999.90;999.90;;;2.00;99.90;;;;;;5073444;28;20067;-72
2023/02/07 01:03:00;;;;;;;1999.90;999.90;;;2.10;99.90;;;;;;5091357;28;20070;-72
2023/02/07 01:05:25;;;;;;;1999.90;999.90;;;2.00;99.90;;;;;;5091620;28;20025;-72
2023/02/07 01:07:51;;;;;;;1999.90;999.90;;;2.00;99.90;;;;;;5093852;28;20541;-83
2023/02/07 01:10:17;;;;;;;1999.90;999.90;;;2.00;99.90;;;;;;5094716;28;20032;-83
2023/02/07 01:12:42;;;;;;;1999.90;999.90;;;1.90;99.90;;;;;;5095224;28;20078;-83
2023/02/07 01:15:08;;;;;;;1999.90;999.90;;;2.00;99.90;;;;;;5093320;28;20119;-72
2023/02/07 01:17:34;;;;;;;1999.90;999.90;;;2.10;99.90;;;;;;5092671;28;20032;-72
2023/02/07 01:20:00;;;;;;;1999.90;999.90;;;2.10;99.90;;;;;;5094933;28;20024;-73
2023/02/07 01:22:26;;;;;;;1999.90;999.90;;;2.10;99.90;;;;;;5076146;28;20541;-83
2023/02/07 01:24:55;;;;;;;1999.90;999.90;;;2.00;99.90;;;;;;5095008;28;20040;-83
2023/02/07 01:27:22;;;;;;;1999.90;999.90;;;2.10;99.90;;;;;;5076608;28;20031;-72
2023/02/07 01:29:48;;;;;;;1999.90;999.90;;;2.10;99.90;;;;;;5094647;28;20103;-74
2023/02/07 01:32:14;;;;;;;1999.90;999.90;;;2.00;99.90;;;;;;5094491;28;20115;-72
2023/02/07 01:34:40;;;;;;;1999.90;999.90;;;2.00;99.90;;;;;;5094883;28;20030;-83
2023/02/07 01:37:05;;;;;;;1999.90;999.90;;;2.00;99.90;;;;;;5093644;28;20133;-83
2023/02/07 01:39:31;;;;;;;1999.90;999.90;;;2.00;99.90;;;;;;5094590;28;20028;-72
2023/02/07 01:41:57;;;;;;;1999.90;999.90;;;2.00;99.90;;;;;;5094455;28;20032;-73
2023/02/07 01:44:22;;;;;;;1999.90;999.90;;;2.00;99.90;;;;;;5094245;28;20028;-73
2023/02/07 01:46:50;;;;;;;1999.90;999.90;;;2.00;99.90;;;;;;5076230;28;20032;-72
2023/02/07 01:49:20;;;;;;;1999.90;999.90;;;2.00;99.90;;;;;;5094135;28;20016;-83
2023/02/07 01:51:54;;;;;;;1999.90;999.90;;;1.90;99.90;;;;;;5094283;28;20028;-83
2023/02/07 01:54:21;;;;;;;1999.90;999.90;;;2.00;99.90;;;;;;5094150;28;20048;-72
2023/02/07 01:56:53;;;;;;;1999.90;999.90;;;2.00;99.90;;;;;;5094434;28;20047;-72
2023/02/07 01:59:20;;;;;;;1999.90;999.90;;;2.00;99.90;;;;;;5093993;28;20032;-72
2023/02/07 02:01:46;;;;;;;1999.90;999.90;;;1.90;99.90;;;;;;5092965;28;20406;-83
2023/02/07 02:04:12;;;;;;;1999.90;999.90;;;2.00;99.90;;;;;;5093809;28;20024;-72
2023/02/07 02:06:39;;;;;;;1999.90;999.90;;;2.00;99.90;;;;;;5094259;28;20020;-72
2023/02/07 02:09:10;;;;;;;1999.90;999.90;;;1.90;99.90;;;;;;5093814;28;20070;-72
2023/02/07 02:12:16;;;;;;;1999.90;999.90;;;1.90;99.90;;;;;;5093744;28;20053;-72
2023/02/07 02:15:05;;;;;;;1999.90;999.90;;;1.90;99.90;;;;;;5075438;28;20106;-83
2023/02/07 02:17:58;;;;;;;1999.90;999.90;;;1.80;99.90;;;;;;5092955;28;20028;-81
2023/02/07 02:20:50;;;;;;;1999.90;999.90;;;1.80;99.90;;;;;;5073754;28;20099;-72
2023/02/07 02:23:21;;;;;;;1999.90;999.90;;;1.80;99.90;;;;;;5073346;28;20028;-72
2023/02/07 02:26:17;;;;;;;1999.90;999.90;;;1.80;99.90;;;;;;5073078;28;20082;-72
2023/02/07 02:29:18;;;;;;;1999.90;999.90;;;1.70;99.90;;;;;;5073495;28;20025;-72
2023/02/07 02:32:04;;;;;;;1999.90;999.90;;;1.70;99.90;;;;;;5090301;28;20028;-72
2023/02/07 02:34:56;;;;;;;1999.90;999.90;;;1.70;99.90;;;;;;5093571;28;20039;-72
2023/02/07 02:37:43;;;;;;;1999.90;999.90;;;1.60;99.90;;;;;;5092377;28;20043;-72
2023/02/07 02:40:30;;;;;;;1999.90;999.90;;;1.70;99.90;;;;;;5093097;28;20020;-83
2023/02/07 02:43:10;;;;;;;1999.90;999.90;;;1.70;99.90;;;;;;5093274;28;20028;-83
2023/02/07 02:45:41;;;;;;;1999.90;999.90;;;1.80;99.90;;;;;;5095650;28;20099;-72
2023/02/07 02:48:10;;;;;;;1999.90;999.90;;;1.80;99.90;;;;;;5113397;28;20055;-72
2023/02/07 02:50:36;;;;;;;1999.90;999.90;;;1.80;99.90;;;;;;5113676;28;20069;-73
2023/02/07 02:53:01;;;;;;;1999.90;999.90;;;1.80;99.90;;;;;;5113337;28;20020;-83
2023/02/07 02:55:41;;;;;;;1999.90;999.90;;;1.90;99.90;;;;;;5113122;28;20491;-83
2023/02/07 02:58:38;;;;;;;1999.90;999.90;;;1.90;99.90;;;;;;5095178;28;20034;-72
2023/02/07 03:01:27;;;;;;;1999.90;999.90;;;1.90;99.90;;;;;;5113157;28;20050;-73
2023/02/07 03:04:22;;;;;;;1999.90;999.90;;;1.90;99.90;;;;;;5095005;28;20046;-72
2023/02/07 03:07:06;;;;;;;1999.90;999.90;;;1.80;99.90;;;;;;5108021;28;20123;-81
2023/02/07 03:10:09;;;;;;;1999.90;999.90;;;1.70;99.90;;;;;;5112936;28;20019;-83
2023/02/07 03:12:47;;;;;;;;;;;1.60;99.90;;;;;;5113629;28;20106;-73
2023/02/07 03:15:30;;;;;;;1999.90;999.90;;;1.60;99.90;;;;;;5096705;28;19911;-72
2023/02/07 03:18:23;;;;;;;1999.90;999.90;;;1.60;99.90;;;;;;5091321;28;20103;-83
2023/02/07 03:21:06;;;;;;;1999.90;999.90;;;1.50;99.90;;;;;;5090445;28;20024;-73
2023/02/07 03:23:32;;;;;;;1999.90;999.90;;;1.50;99.90;;;;;;5072327;28;20444;-72
2023/02/07 03:26:00;;;;;;;1999.90;999.90;;;1.40;99.90;;;;;;5071888;28;20024;-72
2023/02/07 03:28:29;;;;;;;1999.90;999.90;;;1.40;99.90;;;;;;5072033;28;20059;-72
2023/02/07 03:31:00;;;;;;;1999.90;999.90;;;1.30;99.90;;;;;;5053758;28;20039;-82
2023/02/07 03:33:27;;;;;;;1999.90;999.90;;;1.30;99.90;;;;;;5072313;28;20020;-83
2023/02/07 03:36:10;;;;;;;1999.90;999.90;;;1.20;99.90;;;;;;5054369;28;20073;-83
2023/02/07 03:38:37;;;;;;;1999.90;999.90;;;1.10;99.90;;;;;;5090124;28;20361;-72
2023/02/07 03:41:10;;;;;;;1999.90;999.90;;;1.00;99.90;;;;;;5074140;28;20439;-72
2023/02/07 03:43:38;;;;;;;1999.90;999.90;;;1.00;99.90;;;;;;5092275;28;20028;-73
2023/02/07 03:46:06;;;;;;;1999.90;999.90;;;0.90;99.90;;;;;;5099026;28;20043;-83
2023/02/07 03:48:31;;;;;;;1999.90;999.90;;;0.90;99.90;;;;;;5095829;28;20024;-83
2023/02/07 03:50:57;;;;;;;1999.90;999.90;;;0.80;99.90;;;;;;5094362;28;20387;-72
2023/02/07 03:53:23;;;;;;;1999.90;999.90;;;0.80;99.90;;;;;;5112438;28;20019;-72
2023/02/07 03:55:48;;;;;;;1999.90;999.90;;;0.80;99.90;;;;;;5112540;28;20028;-72
2023/02/07 03:58:14;;;;;;;1999.90;999.90;;;0.80;99.90;;;;;;5112110;28;20089;-83
2023/02/07 04:00:39;;;;;;;1999.90;999.90;;;0.70;99.90;;;;;;5112821;28;20098;-83
2023/02/07 04:03:05;;;;;;;1999.90;999.90;;;0.80;99.90;;;;;;5112365;28;20074;-73
2023/02/07 04:05:31;;;;;;;1999.90;999.90;;;0.80;99.90;;;;;;5112322;28;20076;-73
2023/02/07 04:07:56;;;;;;;1999.90;999.90;;;0.80;99.90;;;;;;5112101;28;20024;-72
2023/02/07 04:10:22;;;;;;;1999.90;999.90;;;0.80;99.90;;;;;;5112461;28;20077;-73
2023/02/07 04:12:48;;;;;;;1999.90;999.90;;;0.90;99.90;;;;;;5112545;28;20085;-83
2023/02/07 04:15:13;;;;;;;1999.90;999.90;;;0.90;99.90;;;;;;5097280;28;20046;-72
2023/02/07 04:17:39;;;;;;;1999.90;999.90;;;0.90;99.90;;;;;;5090858;28;20024;-73
2023/02/07 04:20:06;;;;;;;1999.90;999.90;;;0.90;99.90;;;;;;5090435;28;20033;-73
2023/02/07 04:22:32;;;;;;;1999.90;999.90;;;0.90;99.90;;;;;;5075773;28;20047;-73
2023/02/07 04:24:58;;;;;;;1999.90;999.90;;;0.90;99.90;;;;;;5053786;28;20060;-83
2023/02/07 04:27:23;;;;;;;1999.90;999.90;;;0.90;99.90;;;;;;5070346;28;20055;-84
2023/02/07 04:29:49;;;;;;;1999.90;999.90;;;0.80;99.90;;;;;;5071189;28;20028;-72
2023/02/07 04:32:16;;;;;;;1999.90;999.90;;;0.80;99.90;;;;;;5071804;28;20031;-73
2023/02/07 04:34:41;;;;;;;1999.90;999.90;;;0.90;99.90;;;;;;5090734;28;20107;-73
2023/02/07 04:37:07;;;;;;;1999.90;999.90;;;0.80;99.90;;;;;;5091169;28;20059;-83
2023/02/07 04:39:32;;;;;;;1999.90;999.90;;;0.80;99.90;;;;;;5090782;28;20450;-83
2023/02/07 04:41:58;;;;;;;1999.90;999.90;;;0.80;99.90;;;;;;5094449;28;20060;-72
2023/02/07 04:44:24;;;;;;;1999.90;999.90;;;0.70;99.90;;;;;;5092481;28;20437;-72
2023/02/07 04:46:50;;;;;;;1999.90;999.90;;;0.70;99.90;;;;;;5112583;28;20028;-72
2023/02/07 04:49:15;;;;;;;1999.90;999.90;;;0.70;99.90;;;;;;5097155;28;20040;-83
2023/02/07 04:51:41;;;;;;;1999.90;999.90;;;0.60;99.90;;;;;;5115803;28;20032;-72
2023/02/07 04:54:07;;;;;;;1999.90;999.90;;;0.60;99.90;;;;;;5115788;28;20036;-73
2023/02/07 04:56:32;;;;;;;1999.90;999.90;;;0.60;99.90;;;;;;5116128;28;20019;-73
2023/02/07 04:58:58;;;;;;;1999.90;999.90;;;0.50;99.90;;;;;;5115357;28;20403;-72
2023/02/07 05:01:24;;;;;;;1999.90;999.90;;;0.50;99.90;;;;;;5097400;28;20031;-72
2023/02/07 05:03:49;;;;;;;1999.90;999.90;;;0.50;99.90;;;;;;5115649;28;20471;-83
2023/02/07 05:06:15;;;;;;;1999.90;999.90;;;0.50;99.90;;;;;;5097315;28;20122;-83
2023/02/07 05:08:40;;;;;;;1999.90;999.90;;;0.60;99.90;;;;;;5115880;28;20018;-73
2023/02/07 05:11:06;;;;;;;1999.90;999.90;;;0.60;99.90;;;;;;5097097;28;20122;-72
2023/02/07 05:13:32;;;;;;;1999.90;999.90;;;0.60;99.90;;;;;;5115470;28;20045;-73
2023/02/07 05:16:00;;;;;;;1999.90;999.90;;;0.70;99.90;;;;;;5095504;28;20035;-83
2023/02/07 05:18:26;;;;;;;1999.90;999.90;;;0.80;99.90;;;;;;5094059;28;20019;-83
2023/02/07 05:20:52;;;;;;;1999.90;999.90;;;0.90;99.90;;;;;;5092523;28;20029;-72
2023/02/07 05:23:18;;;;;;;1999.90;999.90;;;1.00;99.90;;;;;;5074515;28;20029;-72
2023/02/07 05:25:43;;;;;;;1999.90;999.90;;;1.10;99.90;;;;;;5074430;28;20074;-72
2023/02/07 05:28:09;;;;;;;1999.90;999.90;;;1.10;99.90;;;;;;5074532;28;20059;-83
2023/02/07 05:30:35;;;;;;;1999.90;999.90;;;1.10;99.90;;;;;;5074256;28;20392;-82
2023/02/07 05:33:03;;;;;;;1999.90;999.90;;;1.20;99.90;;;;;;5073161;28;20032;-72
2023/02/07 05:35:40;;;;;;;1999.90;999.90;;;1.10;99.90;;;;;;5073109;28;20024;-72
2023/02/07 05:38:14;;;;;;;1999.90;999.90;;;1.10;99.90;;;;;;5088553;28;20073;-72
2023/02/07 05:40:41;;;;;;;1999.90;999.90;;;1.10;99.90;;;;;;5093752;28;20036;-72
2023/02/07 05:43:08;;;;;;;1999.90;999.90;;;1.10;99.90;;;;;;5093446;28;20111;-82
2023/02/07 05:45:34;;;;;;;1999.90;999.90;;;1.10;99.90;;;;;;5072389;28;20044;-83
2023/02/07 05:47:59;;;;;;;1999.90;999.90;;;1.10;99.90;;;;;;5094047;28;20165;-72
2023/02/07 05:50:26;;;;;;;1999.90;999.90;;;1.10;99.90;;;;;;5076043;28;20559;-72
2023/02/07 05:52:52;;;;;;;1999.90;999.90;;;1.00;99.90;;;;;;5075292;28;20056;-72
2023/02/07 05:55:18;;;;;;;1999.90;999.90;;;1.00;99.90;;;;;;5109110;28;20116;-72
2023/02/07 05:57:44;;;;;;;1999.90;999.90;;;1.00;99.90;;;;;;5114416;28;20371;-72
2023/02/07 06:00:15;;;;;;;1999.90;999.90;;;1.00;99.90;;;;;;5114431;28;20464;-72
2023/02/07 06:02:41;;;;;;;1999.90;999.90;;;1.00;99.90;;;;;;5114167;28;20031;-72
2023/02/07 06:05:10;;;;;;;1999.90;999.90;;;0.90;99.90;;;;;;5096045;28;20036;-72
2023/02/07 06:07:36;;;;;;;1999.90;999.90;;;0.90;99.90;;;;;;5114217;28;20023;-72
2023/02/07 06:10:04;;;;;;;1999.90;999.90;;;0.90;99.90;;;;;;5113942;28;20035;-83
2023/02/07 06:12:30;;;;;;;1999.90;999.90;;;0.90;99.90;;;;;;5114217;28;20033;-83
2023/02/07 06:14:55;;;;;;;1999.90;999.90;;;0.90;99.90;;;;;;5104165;28;20447;-84
2023/02/07 06:17:21;;;;;;;1999.90;999.90;;;0.90;99.90;;;;;;5093590;28;20523;-72
2023/02/07 06:19:47;;;;;;;1999.90;999.90;;;0.90;99.90;;;;;;5074561;28;20036;-72
2023/02/07 06:22:14;;;;;;;1999.90;999.90;;;1.00;99.90;;;;;;5079800;28;20056;-71
2023/02/07 06:24:39;;;;;;;1999.90;999.90;;;1.00;99.90;;;;;;5073508;28;20021;-72
2023/02/07 06:27:05;;;;;;;1999.90;999.90;;;1.00;99.90;;;;;;5073169;28;20450;-71
2023/02/07 06:29:30;;;;;;;1999.90;999.90;;;1.00;99.90;;;;;;5072951;28;20116;-84
2023/02/07 06:31:56;;;;;;;1999.90;999.90;;;1.00;99.90;;;;;;5073021;28;20031;-84
2023/02/07 06:34:22;;;;;;;1999.90;999.90;;;0.90;99.90;;;;;;5094866;28;20050;-71
2023/02/07 06:36:48;;;;;;;1999.90;999.90;;;1.00;99.90;;;;;;5101676;28;20032;-72
2023/02/07 06:39:13;;;;;;;1999.90;999.90;;;0.90;99.90;;;;;;5092111;28;20024;-72
2023/02/07 06:41:39;;;;;;;1999.90;999.90;;;0.90;99.90;;;;;;5092706;28;20028;-71
2023/02/07 06:44:05;;;;;;;1999.90;999.90;;;0.90;99.90;;;;;;5092253;28;20032;-83
2023/02/07 06:46:31;;;;;;;1999.90;999.90;;;0.90;99.90;;;;;;5103462;28;20039;-71
2023/02/07 06:48:56;;;;;;;1999.90;999.90;;;1.00;99.90;;;;;;5088195;28;20024;-72
2023/02/07 06:51:22;;;;;;;1999.90;999.90;;;1.00;99.90;;;;;;5092844;28;20103;-72
2023/02/07 06:53:48;;;;;;;1999.90;999.90;;;1.00;99.90;;;;;;5094391;28;20106;-83
2023/02/07 06:56:13;;;;;;;1999.90;999.90;;;1.10;99.90;;;;;;5094507;28;20028;-71
2023/02/07 06:58:39;;;;;;;1999.90;999.90;;;1.20;99.90;;;;;;5092611;28;20031;-82
2023/02/07 07:01:05;;;;;;;1999.90;999.90;;;1.20;99.90;;;;;;5071341;28;20412;-83
2023/02/07 07:03:30;;;;;;;1999.90;999.90;;;1.30;99.90;;;;;;5099852;28;20051;-73
2023/02/07 07:05:57;;;;;;;1999.90;999.90;;;1.30;99.90;;;;;;5090295;28;20057;-72
2023/02/07 07:08:24;;;;;;;1999.90;999.90;;;1.40;99.90;;;;;;5090611;28;20036;-76
2023/02/07 07:10:49;;;;;;;1999.90;999.90;;;1.40;99.90;;;;;;5104846;28;20035;-71
2023/02/07 07:13:15;;;;;;;1999.90;999.90;;;1.40;99.90;;;;;;5099534;28;20032;-71
2023/02/07 07:15:40;;;;;;;1999.90;999.90;;;1.30;99.90;;;;;;5088757;28;20069;-71
2023/02/07 07:18:06;;;;;;;1999.90;999.90;;;1.40;99.90;;;;;;5098385;28;20026;-78
2023/02/07 07:20:32;;;;;;;1999.90;999.90;;;1.30;99.90;;;;;;5105952;28;20020;-81
2023/02/07 07:23:01;;;;;;;1999.90;999.90;;;1.30;99.90;;;;;;5099399;28;20072;-77
2023/02/07 07:25:26;;;;;;;1999.90;999.90;;;1.30;99.90;;;;;;5107142;28;20028;-71
2023/02/07 07:27:52;;;;;;;1999.90;999.90;;;1.40;99.90;;;;;;5110160;28;20018;-72
2023/02/07 07:30:18;;;;;;;1999.90;999.90;;;1.40;99.90;;;;;;5089117;28;20558;-71
2023/02/07 07:32:43;;;;;;;1999.90;999.90;;;1.40;99.90;;;;;;5082027;28;20024;-71
2023/02/07 07:35:09;;;;;;;1999.90;999.90;;;1.40;99.90;;;;;;5096698;28;20149;-72
2023/02/07 07:37:35;;;;;;;1999.90;999.90;;;1.40;99.90;;;;;;5090705;28;20020;-83
2023/02/07 07:40:01;;;;;;;1999.90;999.90;;;1.40;99.90;;;;;;5090039;28;20031;-83
2023/02/07 07:42:26;;;;;;;1999.90;999.90;;;1.40;99.90;;;;;;5091406;28;20512;-72
2023/02/07 07:44:52;;;;;;;1999.90;999.90;;;1.40;99.90;;;;;;5086876;28;20629;-80
2023/02/07 07:47:18;;;;;;;1999.90;999.90;;;1.40;99.90;;;;;;5086610;28;20091;-79
2023/02/07 07:49:43;;;;;;;1999.90;999.90;;;1.50;99.90;;;;;;5088401;28;20040;-83
2023/02/07 07:52:09;;;;;;;1999.90;999.90;;;1.50;99.90;;;;;;5072430;28;20084;-72
2023/02/07 07:54:35;;;;;;;1999.90;999.90;;;1.50;99.90;;;;;;5090323;28;20099;-83
2023/02/07 07:57:00;;;;;;;1999.90;999.90;;;1.60;99.90;;;;;;5106351;28;20024;-82
2023/02/07 07:59:26;;;;;;;1999.90;999.90;;;1.60;99.90;;;;;;5107975;28;20031;-81
2023/02/07 08:01:52;;;;;;;1999.90;999.90;;;1.60;99.90;;;;;;5091844;28;20024;-71
2023/02/07 08:04:17;;;;;;;1999.90;999.90;;;1.70;99.90;;;;;;5087042;28;20443;-81
2023/02/07 08:06:43;;;;;;;1999.90;999.90;;;1.70;99.90;;;;;;5089449;28;20860;-72
2023/02/07 08:09:08;;;;;;;1999.90;999.90;;;1.70;99.90;;;;;;5088606;28;20404;-82
2023/02/07 08:11:34;;;;;;;1999.90;999.90;;;1.80;99.90;;;;;;5085139;28;20039;-82
2023/02/07 08:14:00;;;;;;;1999.90;999.90;;;1.80;99.90;;;;;;5089057;28;20407;-83
2023/02/07 08:16:25;;;;;;;1999.90;999.90;;;1.80;99.90;;;;;;5090890;28;20031;-72
2023/02/07 08:18:51;;;;;;;1999.90;999.90;;;1.90;99.90;;;;;;5086736;28;20042;-72
2023/02/07 08:21:16;;;;;;;1999.90;999.90;;;2.00;99.90;;;;;;5084920;28;20044;-71
2023/02/07 08:23:42;;;;;;;1999.90;999.90;;;2.00;99.90;;;;;;5082915;28;20177;-83
2023/02/07 08:26:08;;;;;;;1999.90;999.90;;;2.10;99.90;;;;;;5076667;28;20023;-83
2023/02/07 08:28:33;;;;;;;1999.90;999.90;;;2.20;99.90;;;;;;5091762;28;20036;-83
2023/02/07 08:31:00;;;;;;;1999.90;999.90;;;2.20;99.90;;;;;;5091792;28;20027;-73
2023/02/07 08:33:26;;;;;;;1999.90;999.90;;;2.40;99.90;;;;;;5093389;28;20019;-72
2023/02/07 08:35:51;;;;;;;1999.90;999.90;;;2.50;99.90;;;;;;5092332;28;20028;-73
2023/02/07 08:38:17;;;;;;;1999.90;999.90;;;2.60;99.90;;;;;;5076449;28;20052;-72
2023/02/07 08:40:43;;;;;;;1999.90;999.90;;;3.20;99.90;;;;;;5083573;28;20099;-83
2023/02/07 08:43:11;;;;;;;1999.90;999.90;;;4.40;99.90;;;;;;5088030;28;20403;-72
2023/02/07 08:45:38;;;;;;;1999.90;999.90;;;5.30;99.90;;;;;;5074844;28;20057;-73
2023/02/07 08:48:04;;;;;;;1999.90;999.90;;;4.60;99.90;;;;;;5089978;28;20032;-80
2023/02/07 08:50:30;;;;;;;1999.90;999.90;;;4.00;99.90;;;;;;5063404;28;20028;-73
2023/02/07 08:52:55;;;;;;;1999.90;999.90;;;3.50;99.90;;;;;;5091748;28;20111;-73
2023/02/07 08:55:21;;;;;;;1999.90;999.90;;;3.30;99.90;;;;;;5093242;28;20367;-81
2023/02/07 08:57:46;;;;;;;1999.90;999.90;;;3.10;99.90;;;;;;5092235;28;20798;-72
2023/02/07 09:00:13;;;;;;;1999.90;999.90;;;3.10;99.90;;;;;;5091716;28;20030;-72
2023/02/07 09:02:38;;;;;;;1999.90;999.90;;;3.30;99.90;;;;;;5091462;28;20043;-72
2023/02/07 09:05:04;;;;;;;1999.90;999.90;;;4.20;99.90;;;;;;5097962;28;20023;-83
2023/02/07 09:07:30;;;;;;;1999.90;999.90;;;4.30;99.90;;;;;;5100260;28;20035;-72
2023/02/07 09:09:56;;;;;;;1999.90;999.90;;;4.00;99.90;;;;;;5089563;28;20020;-72
2023/02/07 09:12:21;;;;;;;1999.90;999.90;;;3.80;99.90;;;;;;5091575;28;20035;-73
2023/02/07 09:14:47;;;;;;;1999.90;999.90;;;3.80;99.90;;;;;;5103861;28;20107;-82
2023/02/07 09:17:13;;;;;;;1999.90;999.90;;;3.70;99.90;;;;;;5091915;28;20040;-72
2023/02/07 09:19:38;;;;;;;1999.90;999.90;;;3.80;99.90;;;;;;5085858;28;20512;-83
2023/02/07 09:22:04;;;;;;;1999.90;999.90;;;3.70;99.90;;;;;;5086158;28;20028;-72
2023/02/07 09:24:30;;;;;;;1999.90;999.90;;;3.80;99.90;;;;;;5084688;28;20028;-72
2023/02/07 09:26:56;;;;;;;1999.90;999.90;;;3.70;99.90;;;;;;5089384;28;20020;-72
2023/02/07 09:29:21;;;;;;;1999.90;999.90;;;3.70;99.90;;;;;;5089809;28;20056;-82
2023/02/07 09:31:47;;;;;;;1999.90;999.90;;;3.60;99.90;;;;;;5093933;28;20036;-82
2023/02/07 09:34:13;;;;;;;1999.90;999.90;;;3.60;99.90;;;;;;5091294;28;20058;-83
2023/02/07 09:36:39;;;;;;;1999.90;999.90;;;3.70;99.90;;;;;;5090294;28;20036;-72
2023/02/07 09:39:05;;;;;;;1999.90;999.90;;;3.80;99.90;;;;;;5090202;28;20094;-73
2023/02/07 09:41:56;;;;;;;1999.90;999.90;;;3.90;99.90;;;;;;5090445;28;20107;-83
2023/02/07 09:44:27;;;;;;;1999.90;999.90;;;4.00;99.90;;;;;;5090910;28;20032;-72
2023/02/07 09:46:56;;;;;;;1999.90;999.90;;;4.00;99.90;;;;;;5068979;28;20408;-83
2023/02/07 09:49:34;;;;;;;1999.90;999.90;;;4.10;99.90;;;;;;5080762;28;20542;-73
2023/02/07 09:52:02;;;;;;;1999.90;999.90;;;4.30;99.90;;;;;;5080175;28;20427;-72
2023/02/07 09:54:36;;;;;;;1999.90;999.90;;;4.40;99.90;;;;;;5069468;28;20032;-81
2023/02/07 09:57:06;;;;;;;1999.90;999.90;;;4.30;99.90;;;;;;5082374;28;20111;-80
2023/02/07 10:00:21;;;;;;;1999.90;999.90;;;4.20;99.90;;;;;;5091013;28;20500;-84
2023/02/07 10:02:57;;;;;;;1999.90;999.90;;;4.10;99.90;;;;;;4988704;28;20101;-73
2023/02/07 10:05:42;;;;;;;1999.90;999.90;;;4.20;99.90;;;;;;4988640;28;20034;-73
2023/02/07 10:08:13;;;;;;;1999.90;999.90;;;4.30;99.90;;;;;;4988352;28;20043;-72
2023/02/07 10:10:59;;;;;;;1999.90;999.90;;;4.40;99.90;;;;;;4989413;28;20030;-77
2023/02/07 10:13:56;;;;;;;1999.90;999.90;;;4.30;99.90;;;;;;4989686;28;20047;-82
2023/02/07 10:16:31;;;;;;;1999.90;999.90;;;4.40;99.90;;;;;;4988523;28;20105;-72
2023/02/07 10:19:11;;;;;;;1999.90;999.90;;;4.60;99.90;;;;;;4986700;28;20057;-72
2023/02/07 10:21:50;;;;;;;1999.90;999.90;;;4.70;99.90;;;;;;4988189;28;20091;-83
2023/02/07 10:24:18;;;;;;;1999.90;999.90;;;4.80;99.90;;;;;;4995241;28;20025;-76
2023/02/07 10:26:51;;;;;;;1999.90;999.90;;;4.80;99.90;;;;;;4994830;28;20045;-73
2023/02/07 10:29:28;;;;;;;1999.90;999.90;;;4.80;99.90;;;;;;4988173;28;20034;-73
2023/02/07 10:31:58;;;;;;;1999.90;999.90;;;5.00;99.90;;;;;;4989041;28;20081;-80
2023/02/07 10:34:30;;;;;;;1999.90;999.90;;;4.90;99.90;;;;;;5078945;28;20062;-80
2023/02/07 10:36:57;;;;;;;1999.90;999.90;;;4.90;99.90;;;;;;5091389;28;20130;-72
2023/02/07 10:39:37;;;;;;;1999.90;999.90;;;4.80;99.90;;;;;;5090580;28;20281;-82
2023/02/07 10:42:04;;;;;;;1999.90;999.90;;;5.00;99.90;;;;;;5092903;28;20507;-72
2023/02/07 10:44:30;;;;;;;1999.90;999.90;;;5.20;99.90;;;;;;5089985;28;20122;-83
2023/02/07 10:47:02;;;;;;;1999.90;999.90;;;5.20;99.90;;;;;;5082032;28;20107;-83
2023/02/07 10:49:33;;;;;;;1999.90;999.90;;;5.30;99.90;;;;;;5098682;28;20047;-77
2023/02/07 10:52:30;;;;;;;1999.90;999.90;;;5.20;99.90;;;;;;5081268;28;20048;-83
2023/02/07 10:55:01;;;;;;;1999.90;999.90;;;5.20;99.90;;;;;;5077627;28;20036;-72
2023/02/07 10:57:29;;;;;;;1999.90;999.90;;;5.20;99.90;;;;;;5072821;28;20119;-73
2023/02/07 11:00:04;;;;;;;1999.90;999.90;;;5.40;99.90;;;;;;5070361;28;20168;-82
2023/02/07 11:02:30;;;;;;;1999.90;999.90;;;5.50;99.90;;;;;;5081203;28;20028;-83
2023/02/07 11:05:16;;;;;;;1999.90;999.90;;;5.60;99.90;;;;;;5069468;28;20089;-80
2023/02/07 11:08:04;;;;;;;1999.90;999.90;;;5.60;99.90;;;;;;5071836;28;20488;-73
2023/02/07 11:10:36;;;;;;;1999.90;999.90;;;5.70;99.90;;;;;;5064884;28;20040;-79
2023/02/07 11:13:03;;;;;;;1999.90;999.90;;;5.70;99.90;;;;;;5101365;28;20027;-83
2023/02/07 11:15:50;;;;;;;1999.90;999.90;;;5.70;99.90;;;;;;5108894;28;20036;-77
2023/02/07 11:18:45;;;;;;;1999.90;999.90;;;5.80;99.90;;;;;;5101072;28;20031;-82
2023/02/07 11:21:33;;;;;;;1999.90;999.90;;;5.80;99.90;;;;;;5076815;28;20029;-72
2023/02/07 11:24:16;;;;;;;1999.90;999.90;;;5.90;99.90;;;;;;5092285;28;20028;-83
2023/02/07 11:27:20;;;;;;;1999.90;999.90;;;6.00;99.90;;;;;;5088569;28;20422;-72
2023/02/07 11:29:55;;;;;;;1999.90;999.90;;;6.20;99.90;;;;;;5086156;28;20078;-84
2023/02/07 11:32:22;;;;;;;1999.90;999.90;;;6.10;99.90;;;;;;5097284;28;20035;-72
2023/02/07 11:35:00;;;;;;;1999.90;999.90;;;6.20;99.90;;;;;;5099579;28;20091;-72
2023/02/07 11:37:37;;;;;;;1999.90;999.90;;;6.20;99.90;;;;;;5090811;28;20024;-81
2023/02/07 11:40:23;;;;;;;1999.90;999.90;;;6.20;99.90;;;;;;5082966;28;20048;-83
2023/02/07 11:42:57;;;;;;;1999.90;999.90;;;6.40;99.90;;;;;;5074560;28;20479;-81
2023/02/07 11:45:23;;;;;;;1999.90;999.90;;;6.50;99.90;;;;;;5089812;28;20135;-73
2023/02/07 11:47:53;;;;;;;1999.90;999.90;;;6.50;99.90;;;;;;5079896;28;20035;-73
2023/02/07 11:50:42;;;;;;;1999.90;999.90;;;6.60;99.90;;;;;;5070898;28;20090;-72
2023/02/07 11:53:23;;;;;;;1999.90;999.90;;;6.60;99.90;;;;;;5059581;28;20135;-82
2023/02/07 11:55:50;;;;;;;1999.90;999.90;;;6.70;99.90;;;;;;5065736;28;20376;-72
2023/02/07 11:58:34;;;;;;;1999.90;999.90;;;6.80;99.90;;;;;;5064859;28;20109;-72
2023/02/07 12:01:02;;;;;;;1999.90;999.90;;;6.90;99.90;;;;;;5086150;28;20093;-72
2023/02/07 12:03:32;;;;;;;1999.90;999.90;;;7.10;99.90;;;;;;5081134;28;20055;-72
2023/02/07 12:06:01;;;;;;;1999.90;999.90;;;7.20;99.90;;;;;;5081678;28;20035;-73
2023/02/07 12:08:32;;;;;;;1999.90;999.90;;;7.30;99.90;;;;;;5084882;28;20028;-73
2023/02/07 12:11:19;;;;;;;1999.90;999.90;;;7.20;99.90;;;;;;5065440;28;20524;-83
2023/02/07 12:14:10;;;;;;;1999.90;999.90;;;7.40;99.90;;;;;;5081459;28;20028;-72
2023/02/07 12:16:41;;;;;;;1999.90;999.90;;;7.50;99.90;;;;;;5083256;28;20111;-73
2023/02/07 12:19:24;;;;;;;1999.90;999.90;;;7.50;99.90;;;;;;5063170;28;20055;-74
2023/02/07 12:22:15;;;;;;;1999.90;999.90;;;7.60;99.90;;;;;;5080534;28;20028;-82
2023/02/07 12:25:00;;;;;;;1999.90;999.90;;;7.50;99.90;;;;;;5072204;28;20037;-72